Queen Sapphire — 9V7564 — position and weather

sailwx.info

Track history (hours):
 
Tides and Currents Weather Stations Pressure Air Temp Water Temp Dewpoint Dewpoint Depression Visibility Wind Speed Wind Dir Waves Ship Positions

Queen Sapphire

Last reported at 2015-Jul-30 04:31 UTC. Time now 2015-Jul-30 06:08 UTC.
Position N 53°35' E 008°33'.

Length 200 m; draft 8.2 m.

Type: Cargo ship. MMSI: 564254000.

Date/timePositionNaut miles runAvg speedWind from/ knotsBaromVisibWave heightAir tempDewpointWater temp
2015-Jul-30 04:31N 53°35' E 008°33'0 0.0
2015-Jul-30 03:31N 53°35' E 008°33'0 0.0
2015-Jul-30 02:31N 53°35' E 008°33'0 0.0
2015-Jul-30 01:31N 53°35' E 008°33'0 0.0
2015-Jul-30 00:31N 53°35' E 008°33'0 0.0
2015-Jul-29 23:31N 53°35' E 008°33'0 0.0
2015-Jul-29 22:31N 53°35' E 008°33'0 0.0
2015-Jul-29 21:31N 53°35' E 008°33'0 0.5
2015-Jul-29 20:33N 53°34' E 008°33'5 5.2
2015-Jul-29 19:34N 53°38' E 008°27'1413.6
2015-Jul-29 18:34N 53°47' E 008°09'1212.1
2015-Jul-29 17:33N 53°52' E 007°51'1212.4
2015-Jul-29 16:33N 54°01' E 007°36'1010.2
2015-Jul-29 15:33N 54°10' E 007°27'1110.8
2015-Jul-29 14:33N 54°18' E 007°15'8 7.6
2015-Jul-29 13:33N 54°22' E 007°04'5 4.5
2015-Jul-29 12:33N 54°19' E 007°09'3 3.2
2015-Jul-29 11:33N 54°21' E 007°05'2 2.3
2015-Jul-29 10:33N 54°22' E 007°02'2 1.8
2015-Jul-29 09:33N 54°22' E 006°59'8 8.1
2015-Jul-29 08:33N 54°19' E 007°13'2 1.6
2015-Jul-29 07:33N 54°19' E 007°10'2 2.0
2015-Jul-29 06:33N 54°18' E 007°07'1111.1
2015-Jul-29 05:33N 54°13' E 007°25'1312.9
2015-Jul-29 04:33N 54°03' E 007°38'1110.8
2015-Jul-29 03:34N 53°54' E 007°28'1414.2
2015-Jul-29 02:33N 53°50' E 007°04'1717.0
2015-Jul-29 01:33N 53°46' E 006°36'1716.7
2015-Jul-29 00:34N 53°42' E 006°09'1716.7
2015-Jul-28 23:34N 53°37' E 005°42'1716.5
2015-Jul-28 22:34N 53°32' E 005°15'1716.7
2015-Jul-28 21:34N 53°26' E 004°49'1616.1
2015-Jul-28 20:33N 53°12' E 004°34'1716.5
2015-Jul-28 19:33N 52°58' E 004°21'1616.3
2015-Jul-28 18:34N 52°44' E 004°07'1716.3
2015-Jul-28 17:32N 52°32' E 003°47'1616.5
2015-Jul-28 16:33N 52°21' E 003°28'1716.7
2015-Jul-28 15:33N 52°08' E 003°11'1717.0
2015-Jul-28 14:32N 51°56' E 002°51'1717.7
2015-Jul-28 13:33N 51°43' E 002°32'1818.0
2015-Jul-28 12:34N 51°28' E 002°15'1817.9
2015-Jul-28 11:34N 51°13' E 002°00'1918.9
2015-Jul-28 10:34N 51°02' E 001°36'80115.7
2015-Jul-26 07:25N 40°20' W 009°49'1517.1
2015-Jul-26 06:33N 40°05' W 009°50'1716.7
2015-Jul-26 05:33N 39°48' W 009°50'1616.5
2015-Jul-26 04:34N 39°32' W 009°50'1616.1
2015-Jul-26 03:33N 39°16' W 009°51'1616.3
2015-Jul-26 02:34N 38°59' W 009°51'1616.1
2015-Jul-26 01:34N 38°43' W 009°51'1616.1
2015-Jul-26 00:34N 38°28' W 009°46'1615.9
2015-Jul-25 23:34N 38°12' W 009°42'1615.6
2015-Jul-25 22:34N 37°57' W 009°37'1615.5
2015-Jul-25 21:34N 37°42' W 009°33'1615.8
2015-Jul-25 20:34N 37°26' W 009°29'1515.3
2015-Jul-25 19:33N 37°11' W 009°25'1615.6
2015-Jul-25 18:33N 36°56' W 009°20'1515.5
2015-Jul-25 17:34N 36°44' W 009°08'1616.1
2015-Jul-25 16:33N 36°39' W 008°49'1616.5
2015-Jul-25 15:33N 36°34' W 008°29'1616.4
2015-Jul-25 14:33N 36°29' W 008°10'22715.7
2015-Jul-25 00:05N 36°11' W 003°30'916.0
2015-Jul-24 23:32N 36°12' W 003°19'1616.3
2015-Jul-24 22:33N 36°13' W 002°59'1616.3
2015-Jul-24 21:33N 36°13' W 002°39'1616.4
2015-Jul-24 20:33N 36°15' W 002°19'1716.9
2015-Jul-24 19:33N 36°18' W 001°58'1717.0
2015-Jul-24 18:33N 36°21' W 001°37'1716.8
2015-Jul-24 17:33N 36°24' W 001°17'1716.6
2015-Jul-24 16:34N 36°27' W 000°56'1716.8
2015-Jul-24 15:33N 36°30' W 000°35'1616.4
2015-Jul-24 14:33N 36°33' W 000°16'1716.8
2015-Jul-24 13:32N 36°36' E 000°06'1616.8
2015-Jul-24 12:34N 36°39' E 000°26'1716.7
2015-Jul-24 11:33N 36°42' E 000°46'1616.0
2015-Jul-24 10:33N 36°45' E 001°06'3416.9
2015-Jul-24 08:33N 36°51' E 001°47'1817.0
2015-Jul-24 07:31N 36°54' E 002°09'1616.8
2015-Jul-24 06:33N 36°57' E 002°29'1716.8
2015-Jul-24 05:33N 37°00' E 002°50'1716.9
2015-Jul-24 04:33N 37°03' E 003°11'1816.8
2015-Jul-24 03:29N 37°06' E 003°33'1616.8
2015-Jul-24 02:32N 37°08' E 003°52'1716.7
2015-Jul-24 01:33N 37°11' E 004°13'83 3.0
2015-Jul-22 22:07N 36°49' E 005°54'0 0.0
2015-Jul-22 21:31N 36°49' E 005°54'0 0.0
2015-Jul-22 20:31N 36°49' E 005°54'0 0.0
2015-Jul-22 19:31N 36°49' E 005°54'0 0.0
2015-Jul-22 17:04N 36°49' E 005°54'0 0.0
2015-Jul-22 15:25N 36°49' E 005°54'0 0.0
2015-Jul-22 14:31N 36°49' E 005°54'0 0.0
2015-Jul-22 13:33N 36°49' E 005°54'16 7.9
2015-Jul-22 11:33N 37°04' E 005°45'2920.1
2015-Jul-22 10:07N 37°28' E 005°27'1017.7
2015-Jul-22 09:33N 37°37' E 005°20'4117.2
2015-Jul-22 07:11N 38°12' E 004°54'1118.3
2015-Jul-22 06:33N 38°22' E 004°46'2020.1
2015-Jul-22 05:33N 38°39' E 004°33'2020.1
2015-Jul-22 04:33N 38°56' E 004°20'2020.4
2015-Jul-22 03:33N 39°13' E 004°06'2020.3
2015-Jul-22 02:33N 39°31' E 003°53'2020.2
2015-Jul-22 01:32N 39°48' E 003°39'1919.6
2015-Jul-22 00:33N 40°03' E 003°23'2020.0
2015-Jul-21 23:33N 40°14' E 003°01'2019.6
2015-Jul-21 22:33N 40°24' E 002°39'2020.1
2015-Jul-21 21:33N 40°34' E 002°16'2020.2
2015-Jul-21 20:33N 40°45' E 001°53'2019.9
2015-Jul-21 19:33N 40°55' E 001°31'1715.7
2015-Jul-21 18:29N 41°05' E 001°13'1 0.4
2015-Jul-21 16:13N 41°06' E 001°12'0 0.0
2015-Jul-21 15:31N 41°06' E 001°12'0 0.0
2015-Jul-21 13:25N 41°06' E 001°12'0 0.0
2015-Jul-21 12:31N 41°06' E 001°12'0 0.0
2015-Jul-21 08:07N 41°06' E 001°12'0 0.0
2015-Jul-21 07:31N 41°06' E 001°12'0 0.0
2015-Jul-21 06:25N 41°06' E 001°12'0 0.0
2015-Jul-21 05:31N 41°06' E 001°12'0 0.0
2015-Jul-21 04:19N 41°06' E 001°12'0 0.0
2015-Jul-21 03:31N 41°06' E 001°12'0 0.0
2015-Jul-21 02:19N 41°06' E 001°12'0 0.0
2015-Jul-21 01:31N 41°06' E 001°12'0 0.0
2015-Jul-21 00:31N 41°06' E 001°12'0 0.0
2015-Jul-20 23:31N 41°06' E 001°12'0 0.0
2015-Jul-20 22:28N 41°06' E 001°12'0 0.0
2015-Jul-20 21:31N 41°06' E 001°12'0 0.0
2015-Jul-20 20:19N 41°06' E 001°12'0 0.0
2015-Jul-20 19:13N 41°06' E 001°12'0 0.0
2015-Jul-20 18:31N 41°06' E 001°12'0 0.0
2015-Jul-20 17:31N 41°06' E 001°12'2 1.8
2015-Jul-20 16:33N 41°04' E 001°13'7 6.8
2015-Jul-20 15:32N 41°02' E 001°21'3316.5
2015-Jul-20 13:33N 41°07' E 002°04'1817.4
2015-Jul-20 12:32N 41°13' E 002°26'1818.1
2015-Jul-20 11:32N 41°20' E 002°49'2520.0
2015-Jul-20 10:17N 41°28' E 003°20'1620.0
2015-Jul-20 09:27N 41°34' E 003°41'  
Track history (hours):
 
Tides and Currents Weather Stations Pressure Air Temp Water Temp Dewpoint Dewpoint Depression Visibility Wind Speed Wind Dir Waves Ship Positions

Queen Sapphire

Last reported at 2015-Jul-30 04:31 UTC. Time now 2015-Jul-30 06:08 UTC.
Position N 53°35' E 008°33'.

Length 200 m; draft 8.2 m.

Type: Cargo ship. MMSI: 564254000.

Date/timePositionNaut miles runAvg speedWind from/ knotsBaromVisibWave heightAir tempDewpointWater temp
2015-Jul-30 04:31N 53°35' E 008°33'0 0.0
2015-Jul-30 03:31N 53°35' E 008°33'0 0.0
2015-Jul-30 02:31N 53°35' E 008°33'0 0.0
2015-Jul-30 01:31N 53°35' E 008°33'0 0.0
2015-Jul-30 00:31N 53°35' E 008°33'0 0.0
2015-Jul-29 23:31N 53°35' E 008°33'0 0.0
2015-Jul-29 22:31N 53°35' E 008°33'0 0.0
2015-Jul-29 21:31N 53°35' E 008°33'0 0.5
2015-Jul-29 20:33N 53°34' E 008°33'5 5.2
2015-Jul-29 19:34N 53°38' E 008°27'1413.6
2015-Jul-29 18:34N 53°47' E 008°09'1212.1
2015-Jul-29 17:33N 53°52' E 007°51'1212.4
2015-Jul-29 16:33N 54°01' E 007°36'1010.2
2015-Jul-29 15:33N 54°10' E 007°27'1110.8
2015-Jul-29 14:33N 54°18' E 007°15'8 7.6
2015-Jul-29 13:33N 54°22' E 007°04'5 4.5
2015-Jul-29 12:33N 54°19' E 007°09'3 3.2
2015-Jul-29 11:33N 54°21' E 007°05'2 2.3
2015-Jul-29 10:33N 54°22' E 007°02'2 1.8
2015-Jul-29 09:33N 54°22' E 006°59'8 8.1
2015-Jul-29 08:33N 54°19' E 007°13'2 1.6
2015-Jul-29 07:33N 54°19' E 007°10'2 2.0
2015-Jul-29 06:33N 54°18' E 007°07'1111.1
2015-Jul-29 05:33N 54°13' E 007°25'1312.9
2015-Jul-29 04:33N 54°03' E 007°38'1110.8
2015-Jul-29 03:34N 53°54' E 007°28'1414.2
2015-Jul-29 02:33N 53°50' E 007°04'1717.0
2015-Jul-29 01:33N 53°46' E 006°36'1716.7
2015-Jul-29 00:34N 53°42' E 006°09'1716.7
2015-Jul-28 23:34N 53°37' E 005°42'1716.5
2015-Jul-28 22:34N 53°32' E 005°15'1716.7
2015-Jul-28 21:34N 53°26' E 004°49'1616.1
2015-Jul-28 20:33N 53°12' E 004°34'1716.5
2015-Jul-28 19:33N 52°58' E 004°21'1616.3
2015-Jul-28 18:34N 52°44' E 004°07'1716.3
2015-Jul-28 17:32N 52°32' E 003°47'1616.5
2015-Jul-28 16:33N 52°21' E 003°28'1716.7
2015-Jul-28 15:33N 52°08' E 003°11'1717.0
2015-Jul-28 14:32N 51°56' E 002°51'1717.7
2015-Jul-28 13:33N 51°43' E 002°32'1818.0
2015-Jul-28 12:34N 51°28' E 002°15'1817.9
2015-Jul-28 11:34N 51°13' E 002°00'1918.9
2015-Jul-28 10:34N 51°02' E 001°36'80115.7
2015-Jul-26 07:25N 40°20' W 009°49'1517.1
2015-Jul-26 06:33N 40°05' W 009°50'1716.7
2015-Jul-26 05:33N 39°48' W 009°50'1616.5
2015-Jul-26 04:34N 39°32' W 009°50'1616.1
2015-Jul-26 03:33N 39°16' W 009°51'1616.3
2015-Jul-26 02:34N 38°59' W 009°51'1616.1
2015-Jul-26 01:34N 38°43' W 009°51'1616.1
2015-Jul-26 00:34N 38°28' W 009°46'1615.9
2015-Jul-25 23:34N 38°12' W 009°42'1615.6
2015-Jul-25 22:34N 37°57' W 009°37'1615.5
2015-Jul-25 21:34N 37°42' W 009°33'1615.8
2015-Jul-25 20:34N 37°26' W 009°29'1515.3
2015-Jul-25 19:33N 37°11' W 009°25'1615.6
2015-Jul-25 18:33N 36°56' W 009°20'1515.5
2015-Jul-25 17:34N 36°44' W 009°08'1616.1
2015-Jul-25 16:33N 36°39' W 008°49'1616.5
2015-Jul-25 15:33N 36°34' W 008°29'1616.4
2015-Jul-25 14:33N 36°29' W 008°10'22715.7
2015-Jul-25 00:05N 36°11' W 003°30'916.0
2015-Jul-24 23:32N 36°12' W 003°19'1616.3
2015-Jul-24 22:33N 36°13' W 002°59'1616.3
2015-Jul-24 21:33N 36°13' W 002°39'1616.4
2015-Jul-24 20:33N 36°15' W 002°19'1716.9
2015-Jul-24 19:33N 36°18' W 001°58'1717.0
2015-Jul-24 18:33N 36°21' W 001°37'1716.8
2015-Jul-24 17:33N 36°24' W 001°17'1716.6
2015-Jul-24 16:34N 36°27' W 000°56'1716.8
2015-Jul-24 15:33N 36°30' W 000°35'1616.4
2015-Jul-24 14:33N 36°33' W 000°16'1716.8
2015-Jul-24 13:32N 36°36' E 000°06'1616.8
2015-Jul-24 12:34N 36°39' E 000°26'1716.7
2015-Jul-24 11:33N 36°42' E 000°46'1616.0
2015-Jul-24 10:33N 36°45' E 001°06'3416.9
2015-Jul-24 08:33N 36°51' E 001°47'1817.0
2015-Jul-24 07:31N 36°54' E 002°09'1616.8
2015-Jul-24 06:33N 36°57' E 002°29'1716.8
2015-Jul-24 05:33N 37°00' E 002°50'1716.9
2015-Jul-24 04:33N 37°03' E 003°11'1816.8
2015-Jul-24 03:29N 37°06' E 003°33'1616.8
2015-Jul-24 02:32N 37°08' E 003°52'1716.7
2015-Jul-24 01:33N 37°11' E 004°13'83 3.0
2015-Jul-22 22:07N 36°49' E 005°54'0 0.0
2015-Jul-22 21:31N 36°49' E 005°54'0 0.0
2015-Jul-22 20:31N 36°49' E 005°54'0 0.0
2015-Jul-22 19:31N 36°49' E 005°54'0 0.0
2015-Jul-22 17:04N 36°49' E 005°54'0 0.0
2015-Jul-22 15:25N 36°49' E 005°54'0 0.0
2015-Jul-22 14:31N 36°49' E 005°54'0 0.0
2015-Jul-22 13:33N 36°49' E 005°54'16 7.9
2015-Jul-22 11:33N 37°04' E 005°45'2920.1
2015-Jul-22 10:07N 37°28' E 005°27'1017.7
2015-Jul-22 09:33N 37°37' E 005°20'4117.2
2015-Jul-22 07:11N 38°12' E 004°54'1118.3
2015-Jul-22 06:33N 38°22' E 004°46'2020.1
2015-Jul-22 05:33N 38°39' E 004°33'2020.1
2015-Jul-22 04:33N 38°56' E 004°20'2020.4
2015-Jul-22 03:33N 39°13' E 004°06'2020.3
2015-Jul-22 02:33N 39°31' E 003°53'2020.2
2015-Jul-22 01:32N 39°48' E 003°39'1919.6
2015-Jul-22 00:33N 40°03' E 003°23'2020.0
2015-Jul-21 23:33N 40°14' E 003°01'2019.6
2015-Jul-21 22:33N 40°24' E 002°39'2020.1
2015-Jul-21 21:33N 40°34' E 002°16'2020.2
2015-Jul-21 20:33N 40°45' E 001°53'2019.9
2015-Jul-21 19:33N 40°55' E 001°31'1715.7
2015-Jul-21 18:29N 41°05' E 001°13'1 0.4
2015-Jul-21 16:13N 41°06' E 001°12'0 0.0
2015-Jul-21 15:31N 41°06' E 001°12'0 0.0
2015-Jul-21 13:25N 41°06' E 001°12'0 0.0
2015-Jul-21 12:31N 41°06' E 001°12'0 0.0
2015-Jul-21 08:07N 41°06' E 001°12'0 0.0
2015-Jul-21 07:31N 41°06' E 001°12'0 0.0
2015-Jul-21 06:25N 41°06' E 001°12'0 0.0
2015-Jul-21 05:31N 41°06' E 001°12'0 0.0
2015-Jul-21 04:19N 41°06' E 001°12'0 0.0
2015-Jul-21 03:31N 41°06' E 001°12'0 0.0
2015-Jul-21 02:19N 41°06' E 001°12'0 0.0
2015-Jul-21 01:31N 41°06' E 001°12'0 0.0
2015-Jul-21 00:31N 41°06' E 001°12'0 0.0
2015-Jul-20 23:31N 41°06' E 001°12'0 0.0
2015-Jul-20 22:28N 41°06' E 001°12'0 0.0
2015-Jul-20 21:31N 41°06' E 001°12'0 0.0
2015-Jul-20 20:19N 41°06' E 001°12'0 0.0
2015-Jul-20 19:13N 41°06' E 001°12'0 0.0
2015-Jul-20 18:31N 41°06' E 001°12'0 0.0
2015-Jul-20 17:31N 41°06' E 001°12'2 1.8
2015-Jul-20 16:33N 41°04' E 001°13'7 6.8
2015-Jul-20 15:32N 41°02' E 001°21'3316.5
2015-Jul-20 13:33N 41°07' E 002°04'1817.4
2015-Jul-20 12:32N 41°13' E 002°26'1818.1
2015-Jul-20 11:32N 41°20' E 002°49'2520.0
2015-Jul-20 10:17N 41°28' E 003°20'1620.0
2015-Jul-20 09:27N 41°34' E 003°41'  

Dump ship's entire track history